Time;durP1;ratioP1;P1;durP2;ratioP2;P2;SDS_P1;SDS_P2;PMS_P1;PMS_P2;Temp;Humidity;BMP_temperature;BMP_pressure;BME280_temperature;BME280_humidity;BME280_pressure;Samples;Min_cycle;Max_cycle;Signal;HPM_P1;HPM_P2
2022/01/16 00:00:17;;;;;;;;;59.00;44.00;;;;;2.52;66.74;102268.81;5056187;28;45257;-74
2022/01/16 00:05:25;;;;;;;;;51.00;42.67;;;;;2.51;66.92;102267.03;5056687;28;45473;-74
2022/01/16 00:07:50;;;;;;;;;54.33;43.33;;;;;2.49;66.73;102266.13;5056021;28;45361;-74
2022/01/16 00:10:19;;;;;;;;;59.67;47.67;;;;;2.57;66.50;102254.75;5056124;28;45311;-73
2022/01/16 00:12:48;;;;;;;;;45.00;42.33;;;;;2.56;65.96;102238.84;5037703;28;46493;-73
2022/01/16 00:15:14;;;;;;;;;35.33;31.33;;;;;2.62;65.68;102238.91;5055368;28;45339;-75
2022/01/16 00:17:51;;;;;;;;;56.33;39.67;;;;;2.79;65.73;102269.13;5037897;28;45393;-72
2022/01/16 00:20:18;;;;;;;;;58.00;45.00;;;;;2.76;64.89;102266.41;5055887;28;45228;-73
2022/01/16 00:22:45;;;;;;;;;46.67;34.67;;;;;2.81;65.39;102269.09;5055927;28;45476;-73
2022/01/16 00:25:11;;;;;;;;;58.00;40.67;;;;;2.79;64.79;102269.13;5056433;28;45285;-73
2022/01/16 00:27:36;;;;;;;;;38.33;34.00;;;;;2.82;65.05;102278.81;5056230;28;45397;-74
2022/01/16 05:31:17;;;;;;;;;47.67;39.67;;;;;1.98;73.50;102425.03;5064155;27;45575;-73
2022/01/16 05:33:42;;;;;;;;;48.67;35.00;;;;;2.01;73.69;102422.47;5034384;28;45570;-73
2022/01/16 05:36:07;;;;;;;;;47.00;44.00;;;;;2.14;73.39;102441.19;5033443;28;45545;-72
2022/01/16 05:38:33;;;;;;;;;39.00;36.00;;;;;2.24;73.16;102450.16;5033958;28;46210;-73
2022/01/16 05:40:58;;;;;;;;;47.67;42.67;;;;;2.09;73.74;102453.47;5033425;28;45390;-76
2022/01/16 05:43:24;;;;;;;;;52.67;38.33;;;;;2.03;73.62;102441.91;5052041;28;45378;-72
2022/01/16 05:45:49;;;;;;;;;39.00;30.67;;;;;2.15;73.60;102445.59;5069760;28;46878;-73
2022/01/16 05:48:14;;;;;;;;;40.67;33.00;;;;;2.11;73.66;102429.69;5054299;28;46309;-73
2022/01/16 05:50:40;;;;;;;;;28.67;17.33;;;;;2.13;74.00;102439.41;5054136;28;45378;-73
2022/01/16 05:53:05;;;;;;;;;40.67;32.00;;;;;2.09;73.83;102431.41;5054669;28;45817;-73
2022/01/16 05:55:36;;;;;;;;;35.00;26.00;;;;;2.09;73.43;102440.22;5054114;28;45632;-74
2022/01/16 05:58:12;;;;;;;;;43.67;35.67;;;;;2.24;73.06;102448.41;5054233;28;45213;-75
2022/01/16 06:00:38;;;;;;;;;40.33;33.67;;;;;2.28;73.24;102449.34;5054050;28;45369;-74
2022/01/16 06:03:05;;;;;;;;;42.67;33.67;;;;;2.24;73.31;102431.63;5054383;28;45522;-75
2022/01/16 06:05:30;;;;;;;;;36.67;29.67;;;;;2.24;73.09;102421.06;5053623;28;45386;-74
2022/01/16 06:07:59;;;;;;;;;37.00;27.33;;;;;2.31;73.40;102430.84;5056196;28;45689;-73
2022/01/16 06:10:25;;;;;;;;;32.67;26.00;;;;;2.26;73.10;102440.50;5057666;28;45406;-74
2022/01/16 06:12:51;;;;;;;;;27.00;24.33;;;;;2.17;73.10;102475.63;5057550;28;45394;-75
2022/01/16 06:15:18;;;;;;;;;21.33;18.33;;;;;2.12;73.32;102471.16;5057665;28;45516;-74
2022/01/16 06:17:43;;;;;;;;;44.00;34.67;;;;;2.17;73.59;102487.97;5057040;28;45396;-75
2022/01/16 06:20:09;;;;;;;;;38.33;29.00;;;;;2.13;73.27;102478.19;5057204;28;45455;-73
2022/01/16 06:22:34;;;;;;;;;30.67;26.67;;;;;2.07;73.67;102471.06;5057264;28;45410;-74
2022/01/16 06:25:00;;;;;;;;;35.33;28.00;;;;;2.05;73.54;102480.72;5057354;28;45375;-73
2022/01/16 06:27:25;;;;;;;;;40.67;29.00;;;;;2.11;73.72;102479.94;5057119;28;45354;-71
2022/01/16 06:29:50;;;;;;;;;46.00;28.33;;;;;2.25;73.43;102492.53;5063993;28;45311;-74
2022/01/16 06:32:16;;;;;;;;;31.33;25.33;;;;;2.32;73.26;102496.16;5063941;28;45335;-73
2022/01/16 06:34:41;;;;;;;;;52.00;33.33;;;;;2.29;73.41;102493.47;5063863;28;45342;-73
2022/01/16 06:37:06;;;;;;;;;32.33;28.33;;;;;2.34;73.17;102493.53;5063817;28;46603;-74
2022/01/16 06:39:32;;;;;;;;;31.00;29.00;;;;;2.30;73.09;102486.44;5057100;28;45358;-74
2022/01/16 06:41:57;;;;;;;;;32.00;22.33;;;;;2.31;73.40;102474.94;5057196;28;45682;-73
2022/01/16 06:44:23;;;;;;;;;34.33;26.33;;;;;2.28;73.01;102483.75;5056496;28;45325;-74
2022/01/16 06:46:48;;;;;;;;;34.33;29.00;;;;;2.24;73.91;102480.16;5056807;28;46496;-75
2022/01/16 06:49:14;;;;;;;;;21.00;21.00;;;;;2.18;73.60;102492.41;5056399;28;45415;-73
2022/01/16 06:51:39;;;;;;;;;38.67;27.33;;;;;2.14;74.01;102486.16;5057118;28;46007;-74
2022/01/16 06:54:05;;;;;;;;;27.33;25.33;;;;;2.18;73.84;102493.28;5056599;28;45543;-74
2022/01/16 06:56:30;;;;;;;;;40.25;28.50;;;;;2.18;74.68;102492.41;5056874;28;45429;-74
2022/01/16 06:58:57;;;;;;;;;39.00;25.00;;;;;2.22;73.94;102495.09;5056611;28;45248;-74
2022/01/16 07:01:23;;;;;;;;;32.00;25.67;;;;;2.26;74.02;102504.88;5057117;28;45343;-74
2022/01/16 07:03:49;;;;;;;;;33.67;25.67;;;;;2.12;74.47;102502.88;5056408;28;45352;-73
2022/01/16 07:06:15;;;;;;;;;36.50;27.75;;;;;2.16;75.25;102528.50;5056295;28;46554;-74
2022/01/16 07:08:41;;;;;;;;;28.67;25.33;;;;;2.13;75.21;102536.38;5055047;28;45383;-75
2022/01/16 07:11:07;;;;;;;;;38.00;28.67;;;;;2.14;75.43;102533.78;5056954;28;45276;-74
2022/01/16 07:13:32;;;;;;;;;28.33;22.33;;;;;2.24;75.13;102537.47;5056771;28;45324;-73
2022/01/16 07:15:58;;;;;;;;;37.33;29.67;;;;;2.21;74.87;102532.16;5056958;28;45371;-74
2022/01/16 07:18:23;;;;;;;;;25.00;19.50;;;;;2.32;74.82;102540.25;5055581;28;45343;-72
2022/01/16 07:20:49;;;;;;;;;22.50;20.00;;;;;2.33;74.33;102521.75;5056497;28;45497;-74
2022/01/16 07:23:16;;;;;;;;;38.33;32.00;;;;;2.52;74.13;102542.38;5056282;28;45513;-74
2022/01/16 07:25:42;;;;;;;;;28.00;22.75;;;;;2.49;74.27;102528.16;5056350;28;46192;-73
2022/01/16 07:28:08;;;;;;;;;28.00;25.67;;;;;2.58;73.69;102528.31;5056488;28;45482;-74
2022/01/16 07:30:36;;;;;;;;;26.25;16.00;;;;;2.62;73.61;102520.47;5038554;28;45598;-74
2022/01/16 07:33:05;;;;;;;;;20.00;18.75;;;;;2.54;73.38;102498.28;5056314;28;45385;-75
2022/01/16 07:35:31;;;;;;;;;27.00;23.75;;;;;2.73;73.31;102525.00;5056254;28;46207;-75
2022/01/16 07:37:57;;;;;;;;;26.00;24.67;;;;;2.60;73.64;102535.44;5055992;28;45346;-74
2022/01/16 07:40:24;;;;;;;;;31.33;26.00;;;;;2.53;73.93;102553.84;5056349;28;45444;-74
2022/01/16 07:42:50;;;;;;;;;32.00;20.50;;;;;2.44;74.43;102553.69;5038990;28;46251;-74
2022/01/16 07:45:15;;;;;;;;;23.67;19.33;;;;;2.56;74.43;102561.81;5056162;28;45228;-74
2022/01/16 07:47:41;;;;;;;;;30.33;23.00;;;;;2.50;74.08;102538.78;5056094;28;45186;-73
2022/01/16 07:50:07;;;;;;;;;24.00;20.33;;;;;2.75;74.08;102561.25;5056233;28;45565;-73
2022/01/16 07:52:33;;;;;;;;;34.00;21.67;;;;;2.84;73.73;102558.72;5056064;28;45387;-75
2022/01/16 07:54:58;;;;;;;;;26.33;23.00;;;;;2.90;73.62;102568.50;5056314;28;45446;-76
2022/01/16 07:57:23;;;;;;;;;32.00;26.67;;;;;2.98;73.29;102548.31;5055653;28;45378;-72
2022/01/16 07:59:50;;;;;;;;;24.75;17.00;;;;;2.87;73.20;102534.94;5056266;28;45414;-74
2022/01/16 08:02:16;;;;;;;;;37.50;26.25;;;;;2.93;72.96;102537.69;5055771;28;45354;-71
2022/01/16 08:04:41;;;;;;;;;32.50;22.50;;;;;2.98;72.93;102529.78;5055713;28;45936;-74
2022/01/16 08:07:09;;;;;;;;;26.75;23.25;;;;;2.95;73.09;102529.75;5055835;28;45453;-72
2022/01/16 08:09:35;;;;;;;;;31.25;19.00;;;;;3.03;72.86;102538.69;5056164;28;45160;-72
2022/01/16 08:12:01;;;;;;;;;29.00;24.25;;;;;2.95;73.16;102528.00;5055746;28;45213;-77
2022/01/16 08:14:26;;;;;;;;;27.75;20.25;;;;;3.01;72.76;102535.13;5056072;28;46344;-76
2022/01/16 08:16:52;;;;;;;;;30.00;24.67;;;;;3.06;72.78;102546.69;5055690;28;45471;-77
2022/01/16 08:19:17;;;;;;;;;30.75;24.25;;;;;3.07;72.74;102551.09;5055592;28;45861;-78
2022/01/16 08:21:42;;;;;;;;;28.75;21.25;;;;;3.13;72.83;102545.91;5037807;28;46765;-73
2022/01/16 08:24:08;;;;;;;;;35.25;22.50;;;;;3.17;72.42;102558.31;5037605;28;48068;-78
2022/01/16 08:26:33;;;;;;;;;33.50;21.50;;;;;3.15;72.72;102548.59;5055881;28;45379;-74
2022/01/16 08:28:59;;;;;;;;;28.00;23.25;;;;;3.16;72.62;102558.28;5055682;28;45456;-74
2022/01/16 08:31:24;;;;;;;;;31.25;28.50;;;;;3.18;72.19;102545.94;5055352;28;45308;-77
2022/01/16 08:33:50;;;;;;;;;30.75;21.00;;;;;3.29;72.49;102557.59;5055633;28;46168;-76
2022/01/16 08:36:16;;;;;;;;;31.75;24.75;;;;;3.29;72.31;102537.28;5054204;28;45576;-75
2022/01/16 08:38:44;;;;;;;;;27.75;24.75;;;;;3.36;72.11;102549.72;5055132;28;45359;-75
2022/01/16 08:41:09;;;;;;;;;31.25;24.00;;;;;3.28;71.92;102518.69;5055237;28;45407;-74
2022/01/16 08:43:35;;;;;;;;;29.00;21.00;;;;;3.44;71.76;102533.91;5055165;28;45520;-75
2022/01/16 08:46:00;;;;;;;;;30.75;25.00;;;;;3.57;71.97;102548.22;5055046;28;45335;-76
2022/01/16 08:48:27;;;;;;;;;28.75;23.75;;;;;3.62;71.47;102554.47;5037161;28;45406;-73
2022/01/16 08:50:53;;;;;;;;;33.00;21.00;;;;;3.58;71.07;102550.88;5054882;28;45295;-73
2022/01/16 08:53:18;;;;;;;;;40.75;23.75;;;;;3.62;71.27;102544.75;5055203;28;45855;-73
2022/01/16 08:55:43;;;;;;;;;39.75;28.75;;;;;3.73;71.46;102564.34;5055219;28;45343;-75
2022/01/16 08:58:09;;;;;;;;;32.50;28.50;;;;;3.68;71.21;102551.88;5037266;28;45704;-74
2022/01/16 09:00:35;;;;;;;;;25.75;21.25;;;;;3.77;70.62;102563.47;5055149;28;45524;-78
2022/01/16 09:03:00;;;;;;;;;31.25;23.75;;;;;3.73;70.65;102561.69;5055157;28;46337;-78
2022/01/16 09:05:26;;;;;;;;;28.50;26.75;;;;;3.79;70.71;102577.66;5054942;28;45475;-73
2022/01/16 09:07:53;;;;;;;;;33.75;22.50;;;;;3.70;70.85;102580.19;5054765;28;45391;-74
2022/01/16 09:10:19;;;;;;;;;32.25;28.75;;;;;3.78;70.76;102596.19;5054962;28;45324;-73
2022/01/16 09:12:44;;;;;;;;;31.75;26.00;;;;;3.71;71.12;102587.28;5055604;28;45476;-74
2022/01/16 09:15:10;;;;;;;;;24.50;22.00;;;;;3.79;70.72;102588.25;5055466;28;45400;-74
2022/01/16 09:17:37;;;;;;;;;29.00;23.00;;;;;3.84;71.04;102595.38;5054881;28;45573;-73
2022/01/16 09:20:05;;;;;;;;;25.00;22.50;;;;;3.83;70.95;102590.97;5054238;28;45328;-70
2022/01/16 09:22:30;;;;;;;;;30.75;25.50;;;;;3.83;70.73;102583.00;5054823;28;45478;-75
2022/01/16 09:24:56;;;;;;;;;35.50;25.75;;;;;3.96;70.84;102600.81;5054292;28;45419;-73
2022/01/16 09:27:21;;;;;;;;;31.00;28.00;;;;;4.03;70.41;102613.28;5066915;28;45378;-74
2022/01/16 09:29:46;;;;;;;;;31.75;23.00;;;;;4.07;70.77;102597.41;5056117;28;45738;-70
2022/01/16 09:32:16;;;;;;;;;27.00;24.50;;;;;4.13;69.79;102600.13;5054282;28;45597;-74
2022/01/16 09:34:44;;;;;;;;;31.00;23.25;;;;;4.10;69.13;102604.50;5055742;28;45417;-78
2022/01/16 09:37:10;;;;;;;;;24.25;21.25;;;;;4.04;69.89;102612.41;5055617;28;45408;-75
2022/01/16 09:39:36;;;;;;;;;27.75;22.00;;;;;3.91;69.68;102613.16;5054818;28;45415;-76
2022/01/16 09:42:03;;;;;;;;;28.50;23.50;;;;;3.88;70.22;102626.38;5053828;28;46222;-73
2022/01/16 09:44:29;;;;;;;;;33.75;26.50;;;;;3.86;70.03;102620.16;5054540;28;45579;-75
2022/01/16 09:46:54;;;;;;;;;23.50;23.50;;;;;3.81;70.23;102625.44;5054725;28;45558;-74
2022/01/16 09:49:20;;;;;;;;;26.50;21.50;;;;;3.83;70.46;102618.34;5054877;28;45364;-75
2022/01/16 09:51:45;;;;;;;;;25.50;25.50;;;;;3.89;70.17;102615.78;5055723;28;46175;-77
2022/01/16 09:54:11;;;;;;;;;29.25;18.75;;;;;3.83;69.89;102606.88;5052299;28;45363;-73
2022/01/16 09:56:37;;;;;;;;;27.25;20.50;;;;;3.71;69.88;102603.19;5053225;28;45371;-77
2022/01/16 09:59:02;;;;;;;;;27.50;17.50;;;;;3.85;70.30;102615.72;5033849;28;45533;-76
2022/01/16 10:01:27;;;;;;;;;22.25;18.75;;;;;3.95;70.12;102622.91;5053717;28;46185;-72
2022/01/16 10:03:53;;;;;;;;;20.00;17.00;;;;;3.96;70.13;102608.78;5065232;28;45376;-74
2022/01/16 10:06:21;;;;;;;;;27.00;23.50;;;;;4.10;69.42;102623.09;5053615;28;45513;-71
2022/01/16 10:08:54;;;;;;;;;21.75;18.50;;;;;4.11;69.14;102607.19;5053579;28;45207;-74
2022/01/16 10:11:41;;;;;;;;;24.75;19.75;;;;;4.09;68.96;102589.44;5053752;28;45354;-73
2022/01/16 10:16:41;;;;;;;;;27.00;24.00;;;;;4.30;69.27;102610.91;5053580;28;45414;-74
2022/01/16 10:19:20;;;;;;;;;24.50;18.75;;;;;4.27;69.01;102621.50;5054223;28;45986;-76
2022/01/16 10:21:46;;;;;;;;;25.00;22.25;;;;;4.18;68.83;102613.44;5053883;28;45285;-77
2022/01/16 10:24:26;;;;;;;;;28.25;15.50;;;;;4.28;68.78;102609.09;5054174;28;45470;-76
2022/01/16 10:27:17;;;;;;;;;18.25;16.75;;;;;4.30;68.96;102612.69;5054324;28;45322;-75
2022/01/16 10:29:51;;;;;;;;;10.00;10.00;;;;;4.24;69.07;102628.56;5053954;28;45393;-75
2022/01/16 10:32:17;;;;;;;;;27.25;23.75;;;;;4.28;69.32;102640.97;5053597;28;46141;-77
2022/01/16 10:34:43;;;;;;;;;23.25;18.00;;;;;4.15;69.75;102619.63;5057580;28;45418;-79
2022/01/16 10:37:30;;;;;;;;;23.75;20.00;;;;;4.00;70.21;102607.94;5056283;28;45411;-79
2022/01/16 10:40:10;;;;;;;;;20.50;18.50;;;;;4.18;70.64;102616.97;5054365;28;45549;-79
2022/01/16 10:42:39;;;;;;;;;26.25;20.75;;;;;4.24;69.96;102602.00;5053451;28;46272;-79
2022/01/16 10:45:11;;;;;;;;;19.25;15.25;;;;;4.18;69.73;102601.06;5053850;28;45453;-77
2022/01/16 10:47:51;;;;;;;;;22.00;20.75;;;;;4.18;70.51;102626.69;5053690;28;45529;-74
2022/01/16 10:50:28;;;;;;;;;31.00;25.00;;;;;4.08;70.56;102636.31;5053140;28;45553;-74
2022/01/16 10:53:22;;;;;;;;;29.25;26.50;;;;;4.05;71.00;102624.81;5036595;28;47614;-78
2022/01/16 10:55:59;;;;;;;;;24.75;23.50;;;;;3.95;71.15;102610.53;5022154;28;45942;-81
2022/01/16 10:58:36;;;;;;;;;23.75;22.25;;;;;3.90;71.75;102592.81;5057294;28;45436;-76
2022/01/16 11:01:09;;;;;;;;;27.50;23.00;;;;;4.08;71.52;102625.72;5057420;28;45414;-76
2022/01/16 11:03:46;;;;;;;;;21.50;19.00;;;;;4.22;70.69;102620.56;5057428;28;46459;-78
2022/01/16 11:06:17;;;;;;;;;22.75;18.25;;;;;4.40;71.01;102630.47;5057585;28;45433;-78
2022/01/16 11:08:53;;;;;;;;;26.50;22.00;;;;;4.55;70.23;102628.84;5057530;28;45572;-77
2022/01/16 11:11:22;;;;;;;;;25.00;23.75;;;;;4.67;69.38;102622.78;5054964;28;45486;-76
2022/01/16 11:13:47;;;;;;;;;25.25;22.00;;;;;4.35;69.76;102597.66;5057525;28;45539;-78
2022/01/16 11:16:13;;;;;;;;;22.00;16.75;;;;;4.39;70.52;102615.41;5041852;28;45427;-76
2022/01/16 11:18:40;;;;;;;;;30.00;26.00;;;;;4.44;70.33;102621.66;5040403;28;45449;-74
2022/01/16 11:21:15;;;;;;;;;13.75;10.25;;;;;4.44;70.92;102619.88;5057101;28;45286;-74
2022/01/16 11:23:49;;;;;;;;;23.50;18.00;;;;;4.25;70.83;102588.75;5039180;28;48510;-74
2022/01/16 11:26:19;;;;;;;;;20.00;19.00;;;;;4.39;70.90;102611.00;5058053;28;45574;-77
2022/01/16 11:28:45;;;;;;;;;11.75;10.25;;;;;4.38;70.56;102610.97;5057166;28;45343;-77
2022/01/16 11:31:13;;;;;;;;;32.00;21.50;;;;;4.34;71.14;102610.03;5056363;28;45783;-77
2022/01/16 11:33:41;;;;;;;;;33.25;23.50;;;;;4.40;71.00;102623.41;5056270;28;45464;-76
2022/01/16 11:36:12;;;;;;;;;28.50;22.75;;;;;4.56;70.59;102619.13;5038709;28;45340;-76
2022/01/16 11:38:49;;;;;;;;;26.25;26.25;;;;;4.61;70.70;102625.34;5056473;28;45426;-76
2022/01/16 11:41:26;;;;;;;;;21.75;21.25;;;;;4.41;70.89;102587.13;5043724;28;45408;-70
2022/01/16 11:43:55;;;;;;;;;33.25;23.75;;;;;4.64;70.84;102628.03;5056838;28;46032;-78
2022/01/16 11:46:20;;;;;;;;;27.00;24.50;;;;;4.71;70.66;102637.84;5056759;28;45428;-78
2022/01/16 11:48:58;;;;;;;;;38.50;23.50;;;;;4.70;70.63;102636.06;5056830;28;45425;-80
2022/01/16 11:51:35;;;;;;;;;25.25;21.50;;;;;4.73;70.31;102628.13;5066990;28;45326;-78
2022/01/16 11:54:10;;;;;;;;;25.25;22.00;;;;;4.65;70.99;102620.97;5061459;28;45416;-79
2022/01/16 11:56:38;;;;;;;;;27.00;22.75;;;;;4.71;71.37;102632.53;5046658;28;45484;-80
2022/01/16 11:59:29;;;;;;;;;22.50;19.50;;;;;4.62;71.20;102632.44;5062678;28;45316;-77
2022/01/16 12:02:01;;;;;;;;;18.75;17.50;;;;;4.45;71.40;102600.44;5052466;28;45452;-76
2022/01/16 12:04:29;;;;;;;;;26.00;21.25;;;;;4.46;71.83;102628.75;5066480;28;46371;-77
2022/01/16 12:07:13;;;;;;;;;21.50;16.00;;;;;4.36;72.54;102618.94;5056283;28;45530;-74
2022/01/16 12:09:41;;;;;;;;;22.50;21.50;;;;;4.43;72.58;102623.41;5056372;28;45367;-75
2022/01/16 12:12:12;;;;;;;;;22.00;15.75;;;;;4.37;72.71;102622.47;5056577;28;45509;-73
2022/01/16 12:15:09;;;;;;;;;14.75;11.25;;;;;4.43;72.86;102611.91;5069481;28;46123;-72
2022/01/16 12:20:15;;;;;;;;;25.50;22.50;;;;;4.43;72.74;102602.16;5055541;28;45482;-71
2022/01/16 12:22:43;;;;;;;;;33.50;25.75;;;;;4.49;72.39;102593.38;5055106;28;45423;-74
2022/01/16 12:25:21;;;;;;;;;27.75;25.50;;;;;4.43;72.70;102593.31;5055442;28;45551;-74
2022/01/16 12:27:55;;;;;;;;;25.25;19.75;;;;;4.38;72.72;102609.22;5055570;28;45627;-72
2022/01/16 12:30:32;;;;;;;;;34.50;27.50;;;;;4.44;72.45;102617.22;5055414;28;45448;-71
2022/01/16 12:33:10;;;;;;;;;29.00;21.75;;;;;4.41;72.47;102611.03;5037316;28;46759;-73
2022/01/16 12:35:39;;;;;;;;;31.25;24.50;;;;;4.48;72.32;102615.50;5055565;28;46257;-73
2022/01/16 12:38:32;;;;;;;;;22.75;18.50;;;;;4.54;72.13;102602.28;5055139;28;45406;-72
2022/01/16 12:41:03;;;;;;;;;27.50;24.50;;;;;4.56;72.29;102608.50;5053124;28;45401;-72
2022/01/16 12:43:40;;;;;;;;;19.50;18.00;;;;;4.50;72.31;102605.78;5054141;28;45495;-70
2022/01/16 12:46:07;;;;;;;;;26.25;22.00;;;;;4.36;72.56;102576.44;5055221;28;46299;-72
2022/01/16 12:48:50;;;;;;;;;23.25;22.75;;;;;4.38;72.65;102592.41;5049696;28;45388;-71
2022/01/16 12:51:16;;;;;;;;;29.00;22.25;;;;;4.39;73.19;102591.53;5050074;28;45442;-74
2022/01/16 12:53:47;;;;;;;;;30.25;23.50;;;;;4.33;73.17;102589.72;5038416;28;45541;-73
2022/01/16 12:56:18;;;;;;;;;31.75;23.50;;;;;4.40;73.30;102590.66;5036211;28;47529;-75
2022/01/16 12:58:44;;;;;;;;;28.00;24.25;;;;;4.41;73.55;102590.66;5054889;28;45563;-74
2022/01/16 13:01:10;;;;;;;;;24.25;17.50;;;;;4.37;73.19;102594.16;5054991;28;45558;-74
2022/01/16 13:03:36;;;;;;;;;31.00;22.25;;;;;4.38;73.67;102608.31;5054565;28;45835;-75
2022/01/16 13:06:25;;;;;;;;;33.50;28.25;;;;;4.31;73.88;102594.13;5054682;28;46086;-74
2022/01/16 13:09:06;;;;;;;;;14.25;13.00;;;;;4.30;74.31;102599.41;5055488;28;45281;-75
2022/01/16 13:11:59;;;;;;;;;25.75;22.00;;;;;4.42;73.93;102605.69;5055397;28;45305;-76
2022/01/16 13:14:28;;;;;;;;;26.25;22.00;;;;;4.43;73.79;102604.81;5053025;28;45804;-75
2022/01/16 13:16:56;;;;;;;;;31.50;25.25;;;;;4.41;74.41;102597.75;5053851;28;46568;-75
2022/01/16 13:19:24;;;;;;;;;29.50;20.50;;;;;4.44;74.94;102606.59;5054028;28;45363;-74
2022/01/16 13:24:44;;;;;;;;;34.75;22.50;;;;;4.55;75.07;102617.34;5054482;28;45351;-73
2022/01/16 13:27:15;;;;;;;;;29.50;21.50;;;;;4.58;74.26;102620.03;5053741;28;45393;-71
2022/01/16 13:29:43;;;;;;;;;26.00;22.50;;;;;4.61;75.06;102625.34;5054411;28;45389;-70
2022/01/16 13:32:11;;;;;;;;;26.75;23.50;;;;;4.62;74.26;102616.50;5054594;28;45363;-73
2022/01/16 13:34:42;;;;;;;;;22.75;21.50;;;;;4.71;74.58;102629.88;5053865;28;45405;-71
2022/01/16 13:37:14;;;;;;;;;25.50;22.75;;;;;4.69;74.09;102633.38;5054382;28;45463;-72
2022/01/16 13:39:43;;;;;;;;;34.00;27.25;;;;;4.69;74.88;102636.94;5054477;28;45363;-71
2022/01/16 13:42:18;;;;;;;;;25.75;19.75;;;;;4.75;74.04;102630.78;5054273;28;45415;-71
2022/01/16 13:44:45;;;;;;;;;24.50;22.00;;;;;4.77;74.06;102629.00;5053313;28;46998;-72
2022/01/16 13:47:20;;;;;;;;;21.50;19.00;;;;;4.87;74.01;102639.75;5054127;28;45314;-72
2022/01/16 13:49:52;;;;;;;;;26.50;22.00;;;;;4.96;73.82;102638.91;5036097;28;45753;-71
2022/01/16 13:52:23;;;;;;;;;28.75;27.25;;;;;4.91;73.47;102622.97;5053969;28;45433;-71
2022/01/16 13:54:49;;;;;;;;;33.00;26.50;;;;;5.08;73.42;102627.50;5051579;28;45602;-72
2022/01/16 13:57:30;;;;;;;;;35.00;26.50;;;;;5.17;73.14;102632.88;5054033;28;45331;-72
2022/01/16 13:59:59;;;;;;;;;29.75;27.25;;;;;5.24;72.96;102629.38;5054241;28;45342;-73
2022/01/16 14:02:25;;;;;;;;;32.75;26.00;;;;;5.18;73.16;102634.66;5054531;28;45556;-72
2022/01/16 14:04:51;;;;;;;;;35.50;24.25;;;;;5.09;73.50;102632.84;5053803;28;45249;-71
2022/01/16 14:07:21;;;;;;;;;25.50;23.00;;;;;5.10;73.52;102626.63;5054205;28;46084;-72
2022/01/16 14:09:46;;;;;;;;;36.00;27.50;;;;;5.19;73.16;102631.97;5054181;28;45401;-75
2022/01/16 14:12:12;;;;;;;;;25.50;23.75;;;;;5.15;73.50;102618.69;5053004;28;45395;-73
2022/01/16 14:14:39;;;;;;;;;27.00;22.75;;;;;5.28;73.27;102626.72;5036085;28;45398;-73
2022/01/16 14:22:26;;;;;;;;;30.75;22.00;;;;;5.33;73.35;102627.66;5025091;28;45494;-73
2022/01/16 14:24:58;;;;;;;;;31.75;28.00;;;;;5.31;73.24;102620.53;5053996;28;45371;-72
2022/01/16 14:27:33;;;;;;;;;29.25;26.00;;;;;5.36;72.98;102629.41;5053976;28;45329;-72
2022/01/16 14:30:00;;;;;;;;;19.00;19.00;;;;;5.28;73.67;102621.41;5057782;28;45235;-71
2022/01/16 14:32:27;;;;;;;;;35.50;21.25;;;;;5.38;73.46;102638.31;5057373;28;45440;-71
2022/01/16 14:34:54;;;;;;;;;24.25;19.50;;;;;5.26;73.09;102607.25;5057567;28;45182;-72
2022/01/16 14:37:21;;;;;;;;;25.75;21.25;;;;;5.39;73.14;102623.25;5057225;28;47240;-72
2022/01/16 14:39:49;;;;;;;;;31.25;30.25;;;;;5.46;73.14;102633.03;5057753;28;45507;-74
2022/01/16 14:42:17;;;;;;;;;36.50;24.50;;;;;5.43;73.00;102625.94;5057483;28;45170;-76
2022/01/16 14:44:44;;;;;;;;;30.00;26.00;;;;;5.48;73.61;102633.94;5057214;28;45335;-77
2022/01/16 14:47:11;;;;;;;;;18.75;17.00;;;;;5.46;73.69;102617.97;5057561;28;45486;-75
2022/01/16 14:49:37;;;;;;;;;27.50;23.75;;;;;5.49;73.30;102633.94;5056995;28;45485;-73
2022/01/16 14:52:03;;;;;;;;;30.25;21.50;;;;;5.46;73.69;102630.38;5037545;28;45451;-76
2022/01/16 14:54:28;;;;;;;;;30.50;25.75;;;;;5.37;74.26;102628.53;5061503;28;45576;-72
2022/01/16 14:56:54;;;;;;;;;33.50;24.50;;;;;5.40;74.48;102635.66;5056913;28;45346;-71
2022/01/16 14:59:19;;;;;;;;;24.75;22.50;;;;;5.32;74.71;102627.66;5056949;28;45317;-72
2022/01/16 15:01:46;;;;;;;;;21.00;19.75;;;;;5.37;74.98;102633.88;5056968;28;45888;-72
2022/01/16 15:04:13;;;;;;;;;24.75;20.50;;;;;5.36;74.51;102621.44;5056647;28;45561;-71
2022/01/16 15:06:39;;;;;;;;;19.75;16.50;;;;;5.39;74.40;102618.81;5041083;28;46075;-72
2022/01/16 15:09:06;;;;;;;;;29.75;24.25;;;;;5.37;74.96;102623.22;5057100;28;45389;-74
2022/01/16 15:11:33;;;;;;;;;31.25;24.50;;;;;5.40;74.91;102615.28;5058461;28;45444;-72
2022/01/16 15:14:00;;;;;;;;;26.75;17.75;;;;;5.46;74.93;102631.25;5055465;28;45585;-72
2022/01/16 15:16:28;;;;;;;;;41.75;27.25;;;;;5.42;75.57;102640.13;5056300;28;46316;-71
2022/01/16 15:18:57;;;;;;;;;39.25;27.00;;;;;5.42;75.10;102634.81;5049040;28;45840;-71
2022/01/16 15:21:44;;;;;;;;;24.75;23.25;;;;;5.44;75.10;102637.47;5037255;28;45626;-72
2022/01/16 15:24:09;;;;;;;;;27.50;22.75;;;;;5.29;75.80;102611.66;5054098;28;45393;-72
2022/01/16 15:26:34;;;;;;;;;24.75;20.75;;;;;5.28;75.42;102612.53;5052771;28;46136;-73
2022/01/16 15:29:00;;;;;;;;;25.50;21.50;;;;;5.31;75.92;102636.50;5055964;28;45295;-73
2022/01/16 15:31:27;;;;;;;;;39.50;27.50;;;;;5.31;76.60;102642.72;5055695;28;45319;-71
2022/01/16 15:33:52;;;;;;;;;33.50;25.50;;;;;5.31;76.92;102636.50;5055684;28;45450;-71
2022/01/16 15:36:17;;;;;;;;;31.00;25.50;;;;;5.34;76.36;102631.22;5054935;28;45720;-70
2022/01/16 15:38:44;;;;;;;;;30.75;28.75;;;;;5.38;76.21;102640.97;5054867;28;45481;-72
2022/01/16 15:41:09;;;;;;;;;35.50;28.50;;;;;5.51;76.25;102647.25;5054774;28;45438;-73
2022/01/16 15:43:35;;;;;;;;;27.75;23.00;;;;;5.45;76.26;102625.94;5054897;28;45331;-71
2022/01/16 15:46:01;;;;;;;;;34.75;27.00;;;;;5.50;76.22;102643.72;5055128;28;45513;-71
2022/01/16 15:48:27;;;;;;;;;35.00;27.00;;;;;5.38;76.71;102640.06;5054762;28;45418;-76
2022/01/16 15:50:53;;;;;;;;;36.75;27.25;;;;;5.38;76.88;102646.28;5055716;28;45458;-72
2022/01/16 15:53:20;;;;;;;;;23.75;19.75;;;;;5.27;77.08;102626.75;5055425;28;45518;-70
2022/01/16 15:55:50;;;;;;;;;32.00;26.25;;;;;5.42;77.20;102655.19;5036716;28;48229;-72
2022/01/16 15:58:15;;;;;;;;;28.50;25.25;;;;;5.34;77.17;102636.53;5054374;28;45886;-72
2022/01/16 16:00:40;;;;;;;;;25.50;21.25;;;;;5.35;77.35;102646.28;5056181;28;45376;-74
2022/01/16 16:03:09;;;;;;;;;29.50;22.00;;;;;5.47;76.90;102656.09;5056147;28;45639;-73
2022/01/16 16:05:35;;;;;;;;;34.75;24.25;;;;;5.43;77.41;102641.00;5055790;28;46071;-76
2022/01/16 16:08:00;;;;;;;;;28.00;23.75;;;;;5.45;77.53;102661.41;5037032;28;45512;-74
2022/01/16 16:10:26;;;;;;;;;33.00;22.25;;;;;5.44;77.54;102669.41;5055246;28;45352;-74
2022/01/16 16:12:51;;;;;;;;;34.75;27.50;;;;;5.46;77.69;102676.47;5055221;28;45524;-70
2022/01/16 16:15:21;;;;;;;;;36.00;25.75;;;;;5.45;78.03;102682.69;5042237;28;45799;-76
2022/01/16 16:17:47;;;;;;;;;34.25;27.00;;;;;5.35;77.32;102659.59;5054760;28;45540;-78
2022/01/16 16:20:13;;;;;;;;;26.75;23.75;;;;;5.45;77.88;102684.44;5037049;28;45366;-73
2022/01/16 16:22:38;;;;;;;;;29.50;26.75;;;;;5.43;78.11;102673.81;5055553;28;45246;-78
2022/01/16 16:25:05;;;;;;;;;26.50;18.75;;;;;5.57;77.57;102682.75;5055617;28;45247;-75
2022/01/16 16:27:31;;;;;;;;;26.75;19.25;;;;;5.57;77.89;102693.41;5055953;28;45289;-74
2022/01/16 16:29:57;;;;;;;;;26.00;23.50;;;;;5.56;78.35;102696.03;5055039;28;45350;-73
2022/01/16 16:32:24;;;;;;;;;33.50;24.75;;;;;5.56;78.10;102685.41;5060466;28;45865;-72
2022/01/16 16:34:50;;;;;;;;;28.00;25.00;;;;;5.63;78.60;102693.44;5039992;28;46793;-73
2022/01/16 16:37:17;;;;;;;;;29.50;22.50;;;;;5.66;77.90;102696.13;5055586;28;45389;-76
2022/01/16 16:39:43;;;;;;;;;29.00;25.00;;;;;5.63;77.74;102689.88;5055441;28;45384;-72